Time;durP1;ratioP1;P1;durP2;ratioP2;P2;SDS_P1;SDS_P2;PMS_P1;PMS_P2;Temp;Humidity;BMP_temperature;BMP_pressure;BME280_temperature;BME280_humidity;BME280_pressure;Samples;Min_cycle;Max_cycle;Signal;HPM_P1;HPM_P2
2021/07/20 00:29:09;;;;;;;35.42;23.48;;;15.60;99.90;;;;;;4952236;29;20114;-88
2021/07/20 00:31:57;;;;;;;34.05;22.13;;;15.50;99.90;;;;;;4999919;23;20063;-88
2021/07/20 00:34:46;;;;;;;32.75;22.67;;;15.50;99.90;;;;;;4928041;28;20054;-89
2021/07/20 00:37:33;;;;;;;39.75;23.65;;;15.40;99.90;;;;;;4939633;28;20055;-88
2021/07/20 00:40:21;;;;;;;34.58;24.02;;;15.30;99.90;;;;;;4956957;28;20048;-88
2021/07/20 00:43:12;;;;;;;38.15;24.25;;;15.20;99.90;;;;;;4927176;29;20137;-87
2021/07/20 00:46:00;;;;;;;32.42;22.88;;;15.20;99.90;;;;;;4949733;28;20142;-88
2021/07/20 00:48:48;;;;;;;36.72;24.15;;;15.20;99.90;;;;;;4921155;29;20047;-89
2021/07/20 00:51:38;;;;;;;35.88;24.52;;;15.20;99.90;;;;;;4949519;28;20416;-87
2021/07/20 00:54:25;;;;;;;33.25;24.40;;;15.10;99.90;;;;;;4954181;28;20481;-88
2021/07/20 00:57:15;;;;;;;35.13;23.77;;;15.00;99.90;;;;;;4939319;29;20102;-87
2021/07/20 01:00:09;;;;;;;41.22;25.02;;;15.00;99.90;;;;;;4953922;28;20142;-87
2021/07/20 01:02:56;;;;;;;35.63;24.30;;;14.90;99.90;;;;;;4941244;29;20194;-88
2021/07/20 01:05:47;;;;;;;45.70;25.77;;;14.80;99.90;;;;;;4954179;28;20043;-88
2021/07/20 01:08:35;;;;;;;35.90;24.13;;;14.80;99.90;;;;;;4946291;28;20043;-89
2021/07/20 01:11:26;;;;;;;35.17;24.98;;;14.70;99.90;;;;;;4942249;28;20504;-87
2021/07/20 01:14:15;;;;;;;44.08;25.17;;;14.70;99.90;;;;;;4939904;28;20445;-88
2021/07/20 01:17:06;;;;;;;34.95;24.20;;;14.60;99.90;;;;;;4948927;29;20052;-85
2021/07/20 01:19:57;;;;;;;39.25;25.23;;;14.50;99.90;;;;;;4928914;28;20047;-91
2021/07/20 01:23:02;;;;;;;41.60;25.13;;;14.50;99.90;;;;;;4954377;28;20036;-86
2021/07/20 01:25:50;;;;;;;35.38;24.98;;;14.40;99.90;;;;;;4942189;28;20071;-89
2021/07/20 01:28:41;;;;;;;38.05;25.75;;;14.40;99.90;;;;;;4953122;28;20438;-87
2021/07/20 01:31:30;;;;;;;36.95;23.88;;;14.40;99.90;;;;;;4940916;28;20098;-89
2021/07/20 01:34:19;;;;;;;37.03;24.85;;;14.30;99.90;;;;;;4950981;28;20338;-88
2021/07/20 01:37:08;;;;;;;36.58;25.83;;;14.30;99.90;;;;;;4950332;28;20048;-88
2021/07/20 01:39:57;;;;;;;41.40;25.85;;;14.20;99.90;;;;;;4954360;29;20048;-88
2021/07/20 01:42:45;;;;;;;38.65;25.63;;;14.20;99.90;;;;;;4936759;28;20040;-88
2021/07/20 01:45:35;;;;;;;37.67;24.10;;;14.10;99.90;;;;;;4956765;29;20091;-89
2021/07/20 01:48:26;;;;;;;39.25;24.85;;;14.10;99.90;;;;;;4943846;28;20598;-89
2021/07/20 01:51:14;;;;;;;38.00;24.70;;;14.10;99.90;;;;;;4957727;28;20043;-86
2021/07/20 01:54:04;;;;;;;37.38;24.85;;;14.00;99.90;;;;;;4943896;29;20126;-86
2021/07/20 01:56:51;;;;;;;41.58;26.45;;;14.00;99.90;;;;;;4943480;29;20043;-87
2021/07/20 01:59:43;;;;;;;40.38;26.58;;;14.00;99.90;;;;;;4940166;29;20186;-87
2021/07/20 02:02:35;;;;;;;44.10;26.02;;;13.90;99.90;;;;;;4944635;28;20141;-87
2021/07/20 02:08:32;;;;;;;38.55;24.65;;;13.90;99.90;;;;;;4954580;28;20202;-90
2021/07/20 02:11:26;;;;;;;40.22;26.00;;;13.90;99.90;;;;;;4957361;29;20093;-88
2021/07/20 02:14:15;;;;;;;40.97;25.23;;;13.90;99.90;;;;;;4954076;29;20074;-86
2021/07/20 02:17:03;;;;;;;39.72;26.10;;;13.90;99.90;;;;;;4965173;28;20460;-88
2021/07/20 02:19:57;;;;;;;42.50;25.90;;;14.00;99.90;;;;;;4967254;28;20035;-87
2021/07/20 02:22:46;;;;;;;38.67;24.25;;;13.90;99.90;;;;;;4958528;29;20061;-88
2021/07/20 02:25:35;;;;;;;37.58;24.42;;;13.90;99.90;;;;;;4972405;28;20071;-87
2021/07/20 02:28:40;;;;;;;40.25;25.08;;;13.80;99.90;;;;;;4963739;28;20058;-88
2021/07/20 02:31:32;;;;;;;39.58;25.98;;;13.80;99.90;;;;;;4978879;28;20057;-88
2021/07/20 02:34:21;;;;;;;40.47;25.95;;;13.80;99.90;;;;;;4973586;28;20043;-88
2021/07/20 02:37:08;;;;;;;39.05;25.48;;;13.70;99.90;;;;;;4958337;28;20055;-88
2021/07/20 02:39:59;;;;;;;40.83;26.38;;;13.70;99.90;;;;;;4964623;29;20057;-87
2021/07/20 02:42:47;;;;;;;44.95;26.23;;;13.60;99.90;;;;;;4974190;28;20043;-88
2021/07/20 02:45:36;;;;;;;43.90;25.88;;;13.60;99.90;;;;;;4963896;28;20102;-87
2021/07/20 02:48:25;;;;;;;37.80;26.10;;;13.60;99.90;;;;;;4949519;28;20043;-89
2021/07/20 02:51:15;;;;;;;38.65;26.40;;;13.50;99.90;;;;;;4953196;28;20380;-86
2021/07/20 02:54:06;;;;;;;38.65;27.13;;;13.60;99.90;;;;;;4935292;29;20113;-87
2021/07/20 02:56:54;;;;;;;43.25;27.17;;;13.60;99.90;;;;;;4955869;28;20533;-86
2021/07/20 02:59:44;;;;;;;40.22;27.30;;;13.60;99.90;;;;;;4955038;28;20154;-89
2021/07/20 03:02:37;;;;;;;42.67;28.52;;;13.60;99.90;;;;;;4960060;28;20137;-87
2021/07/20 03:05:25;;;;;;;40.50;27.40;;;13.60;99.90;;;;;;4939242;28;20423;-86
2021/07/20 03:08:15;;;;;;;42.85;27.00;;;13.60;99.90;;;;;;4965736;28;20437;-87
2021/07/20 03:11:07;;;;;;;41.25;26.50;;;13.60;99.90;;;;;;4942762;29;20043;-87
2021/07/20 03:13:57;;;;;;;42.83;26.83;;;13.50;99.90;;;;;;4956024;28;20055;-86
2021/07/20 03:16:48;;;;;;;44.50;26.83;;;13.40;99.90;;;;;;4960930;28;20356;-86
2021/07/20 03:19:41;;;;;;;38.08;26.55;;;13.40;99.90;;;;;;4959618;28;20039;-87
2021/07/20 03:22:29;;;;;;;;;;;13.40;99.90;;;;;;4962361;28;20538;-89
2021/07/20 03:25:20;;;;;;;44.80;27.20;;;13.30;99.90;;;;;;4957461;28;20711;-87
2021/07/20 03:28:14;;;;;;;46.22;26.88;;;13.30;99.90;;;;;;4949704;28;20047;-87
2021/07/20 03:31:02;;;;;;;41.28;26.23;;;13.20;99.90;;;;;;4961713;28;20062;-86
2021/07/20 03:33:51;;;;;;;41.78;26.02;;;13.20;99.90;;;;;;4949855;28;20043;-89
2021/07/20 03:36:39;;;;;;;39.85;25.88;;;13.10;99.90;;;;;;4956390;28;20532;-88
2021/07/20 03:39:27;;;;;;;44.13;26.98;;;13.00;99.90;;;;;;4941219;28;20417;-88
2021/07/20 03:42:15;;;;;;;40.80;27.10;;;12.90;99.90;;;;;;4962429;28;20062;-88
2021/07/20 03:45:06;;;;;;;39.50;26.92;;;12.90;99.90;;;;;;4945293;29;20162;-88
2021/07/20 03:47:53;;;;;;;46.95;26.83;;;12.90;99.90;;;;;;4956583;28;20047;-90
2021/07/20 03:50:43;;;;;;;41.22;27.40;;;13.00;99.90;;;;;;4940538;29;20102;-87
2021/07/20 03:53:34;;;;;;;41.67;26.15;;;12.90;99.90;;;;;;4938529;28;20127;-86
2021/07/20 03:56:23;;;;;;;47.65;27.23;;;12.90;99.90;;;;;;4939266;29;20043;-89
2021/07/20 03:59:12;;;;;;;48.42;27.20;;;12.90;99.90;;;;;;4957283;28;20093;-90
2021/07/20 04:02:04;;;;;;;46.80;28.17;;;13.00;99.90;;;;;;4954922;28;20047;-87
2021/07/20 04:04:53;;;;;;;48.63;28.55;;;12.90;99.90;;;;;;4968114;28;20476;-87
2021/07/20 04:07:42;;;;;;;44.55;28.80;;;13.00;99.90;;;;;;4955172;28;20121;-86
2021/07/20 04:10:32;;;;;;;50.88;28.77;;;13.00;99.90;;;;;;4955357;28;20138;-86
2021/07/20 04:13:27;;;;;;;48.28;29.42;;;13.00;99.90;;;;;;4942351;28;20054;-86
2021/07/20 04:16:16;;;;;;;47.00;29.20;;;13.00;99.90;;;;;;4953535;28;20051;-87
2021/07/20 04:19:04;;;;;;;41.28;26.95;;;13.10;99.90;;;;;;4966052;28;20043;-87
2021/07/20 04:21:51;;;;;;;42.67;26.45;;;13.00;99.90;;;;;;4937610;29;20134;-85
2021/07/20 04:24:40;;;;;;;37.95;24.58;;;13.00;99.90;;;;;;4954053;28;20397;-88
2021/07/20 04:27:29;;;;;;;41.92;26.17;;;13.00;99.90;;;;;;4958667;28;20138;-83
2021/07/20 04:43:00;;;;;;;55.95;28.00;;;13.30;99.90;;;;;;4894341;29;20087;-82
2021/07/20 04:45:49;;;;;;;40.20;26.20;;;13.30;99.90;;;;;;4907718;29;20113;-83
2021/07/20 04:48:39;;;;;;;44.03;26.25;;;13.40;99.90;;;;;;4919765;29;20458;-83
2021/07/20 04:51:28;;;;;;;40.90;26.60;;;13.40;99.90;;;;;;4936060;29;20163;-83
2021/07/20 04:54:19;;;;;;;42.53;26.95;;;13.40;99.90;;;;;;4936721;29;20190;-82
2021/07/20 04:57:07;;;;;;;40.50;24.65;;;13.50;99.90;;;;;;4931619;29;20130;-82
2021/07/20 04:59:55;;;;;;;39.50;25.17;;;13.60;99.90;;;;;;4933887;29;20058;-85
2021/07/20 05:02:46;;;;;;;36.22;25.15;;;13.70;99.90;;;;;;4919878;29;20047;-84
2021/07/20 05:05:38;;;;;;;41.17;25.38;;;13.70;99.90;;;;;;4939079;29;20048;-82
2021/07/20 05:08:27;;;;;;;39.88;25.40;;;13.80;99.90;;;;;;4944052;29;20350;-84
2021/07/20 05:11:19;;;;;;;41.22;23.27;;;13.80;99.90;;;;;;4929082;29;20048;-84
2021/07/20 05:14:07;;;;;;;34.75;21.50;;;13.90;99.90;;;;;;4933148;29;20055;-84
2021/07/20 05:16:55;;;;;;;36.72;23.08;;;14.00;99.90;;;;;;4941766;29;20418;-82
2021/07/20 05:19:42;;;;;;;39.55;21.50;;;14.10;99.90;;;;;;4945785;29;20047;-84
2021/07/20 05:22:33;;;;;;;33.05;21.98;;;14.30;99.90;;;;;;4931094;29;20165;-83
2021/07/20 05:25:21;;;;;;;31.85;20.75;;;14.40;99.90;;;;;;4937478;29;20142;-82
2021/07/20 05:28:11;;;;;;;31.95;19.83;;;14.50;99.90;;;;;;4931336;29;20084;-83
2021/07/20 05:31:02;;;;;;;30.00;20.50;;;14.60;99.90;;;;;;4954687;29;20048;-84
2021/07/20 05:33:52;;;;;;;31.13;19.70;;;14.70;99.90;;;;;;4924777;29;20111;-84
2021/07/20 05:36:40;;;;;;;33.63;19.75;;;14.80;99.90;;;;;;4937093;28;20076;-84
2021/07/20 05:39:32;;;;;;;35.42;20.58;;;14.90;99.90;;;;;;4958679;28;20502;-84
2021/07/20 05:42:20;;;;;;;30.77;19.08;;;15.00;99.90;;;;;;4969335;28;20457;-84
2021/07/20 05:45:08;;;;;;;27.98;19.05;;;15.20;99.90;;;;;;4962980;28;20296;-84
2021/07/20 05:47:56;;;;;;;31.77;18.20;;;15.20;99.90;;;;;;4953969;28;20055;-85
2021/07/20 05:50:49;;;;;;;30.17;19.10;;;15.40;99.90;;;;;;4951705;28;20043;-89
2021/07/20 05:53:38;;;;;;;29.10;18.38;;;15.50;99.90;;;;;;4956794;28;20054;-87
2021/07/20 05:56:30;;;;;;;29.83;18.58;;;15.60;99.90;;;;;;4942921;28;20051;-88
2021/07/20 05:59:18;;;;;;;;;;;15.70;99.90;;;;;;4957877;28;20040;-88
2021/07/20 06:02:12;;;;;;;34.55;19.83;;;15.80;99.90;;;;;;4962307;28;19974;-88
2021/07/20 06:05:01;;;;;;;35.45;19.83;;;15.90;99.90;;;;;;4960387;28;20047;-87
2021/07/20 06:07:51;;;;;;;31.08;18.92;;;16.00;99.90;;;;;;4959649;28;20070;-87
2021/07/20 06:10:47;;;;;;;26.13;18.20;;;16.20;99.90;;;;;;4965005;28;20047;-90
2021/07/20 06:13:46;;;;;;;23.73;17.00;;;16.40;99.90;;;;;;4965578;28;20047;-88
2021/07/20 06:16:47;;;;;;;28.42;17.98;;;16.60;99.90;;;;;;4931833;28;20047;-90
2021/07/20 06:19:55;;;;;;;26.75;16.40;;;16.90;99.90;;;;;;4944138;29;20044;-92
2021/07/20 06:22:55;;;;;;;26.85;16.38;;;17.10;99.90;;;;;;4943837;29;20059;-91
2021/07/20 06:25:56;;;;;;;24.33;15.45;;;17.50;99.90;;;;;;4955827;28;20103;-88
2021/07/20 06:28:46;;;;;;;27.00;15.15;;;17.80;99.90;;;;;;4951628;28;20051;-90
2021/07/20 06:31:39;;;;;;;23.95;15.07;;;17.80;99.90;;;;;;4942482;29;20047;-90
2021/07/20 06:34:29;;;;;;;25.00;15.10;;;18.00;99.90;;;;;;4949562;28;20058;-90
2021/07/20 06:37:18;;;;;;;29.05;15.38;;;18.50;99.90;;;;;;4943627;28;20158;-87
2021/07/20 06:40:07;;;;;;;18.77;13.18;;;18.90;99.90;;;;;;4951315;28;20047;-88
2021/07/20 06:42:56;;;;;;;22.13;13.38;;;19.20;99.90;;;;;;4962602;28;20091;-88
2021/07/20 06:45:48;;;;;;;23.10;13.65;;;19.50;99.90;;;;;;4959373;28;20118;-87
2021/07/20 06:48:47;;;;;;;23.05;14.27;;;19.60;99.90;;;;;;4948849;28;20045;-87
2021/07/20 06:51:35;;;;;;;21.98;14.25;;;19.60;99.90;;;;;;4950998;28;20154;-88
2021/07/20 06:54:24;;;;;;;18.83;12.98;;;19.60;99.90;;;;;;4957943;28;20042;-86
2021/07/20 06:57:16;;;;;;;22.67;13.13;;;19.90;99.90;;;;;;4958661;28;20043;-86
2021/07/20 07:00:07;;;;;;;19.67;12.57;;;20.10;99.90;;;;;;4956510;28;20175;-88
2021/07/20 07:03:00;;;;;;;20.75;13.38;;;20.20;99.90;;;;;;4942243;29;20067;-88
2021/07/20 07:05:59;;;;;;;20.17;12.48;;;20.30;99.90;;;;;;4947155;28;20091;-89
2021/07/20 07:08:47;;;;;;;20.47;12.67;;;20.70;99.90;;;;;;4964722;28;20047;-88
2021/07/20 07:11:35;;;;;;;18.88;12.40;;;21.00;99.90;;;;;;4966660;28;20286;-87
2021/07/20 07:14:24;;;;;;;19.05;12.32;;;21.40;99.90;;;;;;4923824;28;20469;-88
2021/07/20 07:17:11;;;;;;;18.40;11.52;;;21.60;99.90;;;;;;4942022;28;20484;-86
2021/07/20 07:20:04;;;;;;;21.35;11.63;;;21.60;99.90;;;;;;4954541;28;20082;-88
2021/07/20 07:22:53;;;;;;;21.00;11.48;;;21.70;99.90;;;;;;4961224;28;20094;-88
2021/07/20 07:25:48;;;;;;;17.35;11.48;;;21.90;99.90;;;;;;4948118;28;20058;-89
2021/07/20 07:28:39;;;;;;;19.23;11.88;;;22.40;99.90;;;;;;4954475;28;20108;-89
2021/07/20 07:31:29;;;;;;;15.10;10.60;;;22.50;99.90;;;;;;4962774;28;20472;-88
2021/07/20 07:34:17;;;;;;;19.38;10.95;;;22.70;99.90;;;;;;4963716;28;20051;-90
2021/07/20 07:37:06;;;;;;;17.17;10.98;;;22.70;99.90;;;;;;4946709;28;20375;-89
2021/07/20 07:39:57;;;;;;;15.95;10.68;;;22.90;96.40;;;;;;4945665;28;20043;-89
2021/07/20 07:42:45;;;;;;;15.13;10.80;;;22.90;97.60;;;;;;4952172;28;20058;-92
2021/07/20 07:45:36;;;;;;;15.77;10.13;;;23.00;96.50;;;;;;4954789;28;20043;-89
2021/07/20 07:48:29;;;;;;;17.77;11.20;;;23.20;96.80;;;;;;4939019;29;20421;-90
2021/07/20 07:51:21;;;;;;;14.77;10.48;;;23.40;95.80;;;;;;4960718;28;20535;-90
2021/07/20 07:54:09;;;;;;;14.23;10.30;;;23.70;97.40;;;;;;4955417;28;20039;-90
2021/07/20 07:56:57;;;;;;;16.42;9.45;;;24.30;92.20;;;;;;4968107;28;20180;-91
2021/07/20 07:59:52;;;;;;;16.58;10.15;;;24.90;89.40;;;;;;4960494;28;20046;-91
2021/07/20 08:02:51;;;;;;;14.43;10.07;;;25.30;87.30;;;;;;4956733;28;20169;-88
2021/07/20 08:05:41;;;;;;;13.02;9.77;;;25.60;80.00;;;;;;4940355;29;20134;-89
2021/07/20 08:08:31;;;;;;;17.15;10.10;;;25.60;75.90;;;;;;4955362;28;20179;-89
2021/07/20 08:11:23;;;;;;;15.43;10.00;;;25.70;80.80;;;;;;4950588;28;20461;-88
2021/07/20 08:14:12;;;;;;;16.48;9.98;;;26.00;73.60;;;;;;4953694;28;20043;-88
2021/07/20 08:17:01;;;;;;;10.13;8.77;;;25.80;72.40;;;;;;4951526;28;20043;-86
2021/07/20 08:19:51;;;;;;;15.25;10.23;;;25.70;75.30;;;;;;4966214;28;20824;-86
2021/07/20 08:22:39;;;;;;;16.08;10.38;;;26.00;71.00;;;;;;4951243;28;20130;-88
2021/07/20 08:25:31;;;;;;;12.45;8.80;;;26.60;71.60;;;;;;4956852;28;20055;-86
2021/07/20 08:28:32;;;;;;;14.25;9.25;;;26.40;71.00;;;;;;4953607;29;20066;-93
2021/07/20 08:31:23;;;;;;;13.95;9.35;;;26.90;69.30;;;;;;4954511;28;20047;-90
2021/07/20 08:34:14;;;;;;;13.63;9.32;;;26.80;70.90;;;;;;4965869;28;20057;-90
2021/07/20 08:37:10;;;;;;;14.48;8.75;;;26.80;67.20;;;;;;4953641;28;20082;-91
2021/07/20 08:40:08;;;;;;;14.00;9.68;;;27.30;70.30;;;;;;4953001;28;20048;-90
2021/07/20 08:43:05;;;;;;;14.23;9.38;;;27.80;70.10;;;;;;4958833;28;20051;-88
2021/07/20 08:46:13;;;;;;;14.30;10.18;;;27.50;66.10;;;;;;4943070;28;20057;-92
2021/07/20 08:49:38;;;;;;;15.80;9.88;;;26.70;66.60;;;;;;4952482;28;20524;-90
2021/07/20 08:52:36;;;;;;;13.60;9.90;;;26.60;64.40;;;;;;4956183;28;20477;-89
2021/07/20 08:55:27;;;;;;;12.80;9.35;;;27.00;68.40;;;;;;4960711;28;20043;-90
2021/07/20 08:58:23;;;;;;;13.05;9.18;;;27.10;70.30;;;;;;4953236;28;20442;-91
2021/07/20 09:01:22;;;;;;;15.18;9.38;;;28.10;63.70;;;;;;4951254;28;20464;-90
2021/07/20 09:04:21;;;;;;;11.95;9.27;;;28.50;64.50;;;;;;4962210;28;20133;-89
2021/07/20 09:07:13;;;;;;;12.80;8.80;;;28.60;59.80;;;;;;4954173;28;20063;-87
2021/07/20 09:10:07;;;;;;;13.65;8.18;;;28.90;59.80;;;;;;4953386;28;20161;-89
2021/07/20 09:12:55;;;;;;;12.93;9.15;;;29.70;57.00;;;;;;4948137;28;20039;-87
2021/07/20 09:15:53;;;;;;;13.82;8.90;;;29.80;59.50;;;;;;4958069;28;20109;-87
2021/07/20 09:18:49;;;;;;;12.23;8.52;;;29.80;56.00;;;;;;4942714;29;20062;-88
2021/07/20 09:21:44;;;;;;;12.88;8.55;;;30.30;52.80;;;;;;4950618;28;20130;-86
2021/07/20 09:24:47;;;;;;;11.23;8.82;;;29.80;53.80;;;;;;4958023;28;20066;-87
2021/07/20 09:28:00;;;;;;;14.85;9.80;;;30.50;55.50;;;;;;4961740;28;20035;-89
2021/07/20 09:30:52;;;;;;;15.02;8.63;;;30.70;53.20;;;;;;4957097;28;20492;-89
2021/07/20 09:33:48;;;;;;;15.65;8.32;;;30.90;54.90;;;;;;4962408;28;20038;-86
2021/07/20 09:36:46;;;;;;;16.05;8.10;;;31.40;52.60;;;;;;4961016;28;20488;-87
2021/07/20 09:39:51;;;;;;;13.75;8.57;;;31.80;51.10;;;;;;4961624;28;20457;-90
2021/07/20 09:43:01;;;;;;;14.65;8.82;;;31.30;51.20;;;;;;4943806;29;20074;-89
2021/07/20 09:45:57;;;;;;;13.95;9.20;;;29.80;53.70;;;;;;4950623;28;20462;-91
2021/07/20 09:49:00;;;;;;;16.90;10.25;;;29.20;55.50;;;;;;4957408;28;20043;-92
2021/07/20 09:52:26;;;;;;;15.70;9.93;;;29.40;54.80;;;;;;4940464;29;20051;-89
2021/07/20 09:55:19;;;;;;;13.93;9.82;;;30.00;54.40;;;;;;4957180;28;20078;-85
2021/07/20 09:58:31;;;;;;;11.63;9.23;;;30.40;52.60;;;;;;4953232;28;20058;-89
2021/07/20 10:01:22;;;;;;;;;;;30.30;54.40;;;;;;4942688;28;20051;-86
2021/07/20 10:04:10;;;;;;;13.13;9.10;;;31.00;49.00;;;;;;4962520;28;19933;-84
2021/07/20 10:07:06;;;;;;;16.05;9.73;;;30.50;53.30;;;;;;4957277;28;20540;-86
2021/07/20 10:10:02;;;;;;;12.80;9.18;;;30.10;54.40;;;;;;4955344;28;20058;-85
2021/07/20 10:13:14;;;;;;;18.85;10.82;;;30.10;53.40;;;;;;4956504;28;20047;-84
2021/07/20 10:16:20;;;;;;;20.67;10.43;;;30.90;50.60;;;;;;4956785;28;20183;-84
2021/07/20 10:19:12;;;;;;;14.13;9.60;;;30.70;51.60;;;;;;4955501;28;20044;-85
2021/07/20 10:22:03;;;;;;;13.30;10.23;;;31.60;50.20;;;;;;4955326;28;20059;-83
2021/07/20 10:25:03;;;;;;;16.85;11.45;;;32.50;47.10;;;;;;4962697;28;20055;-86
2021/07/20 10:28:04;;;;;;;15.98;11.57;;;32.90;45.90;;;;;;4949827;28;20122;-85
2021/07/20 10:31:15;;;;;;;14.15;11.02;;;33.00;47.90;;;;;;4955147;28;20043;-84
2021/07/20 10:34:07;;;;;;;14.73;10.65;;;32.60;48.10;;;;;;4942810;29;20057;-85
2021/07/20 10:36:56;;;;;;;;;;;32.60;48.20;;;;;;4955156;28;20055;-85
2021/07/20 10:40:09;;;;;;;15.50;11.23;;;32.60;47.90;;;;;;4945353;28;20252;-85
2021/07/20 10:43:15;;;;;;;13.40;10.18;;;32.80;44.90;;;;;;4958746;28;20162;-84
2021/07/20 10:46:05;;;;;;;21.45;12.23;;;33.40;43.00;;;;;;4953253;28;20110;-84
2021/07/20 10:49:12;;;;;;;19.15;11.45;;;31.90;49.50;;;;;;4955127;28;20449;-85
2021/07/20 10:52:20;;;;;;;14.48;11.80;;;30.80;49.80;;;;;;4956416;28;20119;-85
2021/07/20 10:55:19;;;;;;;23.23;13.65;;;28.90;52.00;;;;;;4954220;28;20138;-87
2021/07/20 10:58:30;;;;;;;18.02;12.48;;;27.70;54.20;;;;;;4960079;28;20059;-86
2021/07/20 11:01:19;;;;;;;21.00;13.65;;;28.30;56.90;;;;;;4943290;29;20070;-87
2021/07/20 11:04:36;;;;;;;16.27;12.63;;;29.60;55.30;;;;;;4957882;28;20043;-86
2021/07/20 11:07:45;;;;;;;20.88;13.13;;;31.50;49.90;;;;;;4953661;28;20402;-87
2021/07/20 11:10:41;;;;;;;14.10;12.02;;;32.80;45.70;;;;;;4955982;28;20448;-87
2021/07/20 11:13:37;;;;;;;17.52;12.15;;;32.60;49.50;;;;;;4956413;28;20082;-86
2021/07/20 11:16:25;;;;;;;20.60;12.60;;;32.60;48.30;;;;;;4956430;28;20122;-86
2021/07/20 11:19:13;;;;;;;16.35;12.25;;;31.50;51.10;;;;;;4951827;28;20473;-86
2021/07/20 11:22:03;;;;;;;15.38;12.48;;;31.50;48.60;;;;;;4954182;28;20051;-88
2021/07/20 11:24:53;;;;;;;19.48;13.55;;;31.80;48.20;;;;;;4959037;28;20051;-86
2021/07/20 11:27:45;;;;;;;18.90;12.98;;;31.90;50.00;;;;;;4954284;29;20134;-88
2021/07/20 11:30:37;;;;;;;21.17;13.05;;;32.30;45.70;;;;;;4949812;28;20562;-89
2021/07/20 11:33:29;;;;;;;;;;;33.10;44.30;;;;;;4955382;28;20062;-86
2021/07/20 11:36:38;;;;;;;15.85;12.02;;;33.80;46.00;;;;;;4955710;28;19922;-90
2021/07/20 11:39:31;;;;;;;16.60;13.05;;;34.70;43.90;;;;;;4957251;28;20047;-84
2021/07/20 11:42:43;;;;;;;18.70;13.57;;;33.60;43.40;;;;;;4956119;28;20123;-83
2021/07/20 11:45:42;;;;;;;23.98;14.05;;;31.80;47.10;;;;;;4953581;28;20333;-84
2021/07/20 11:48:34;;;;;;;16.52;13.60;;;31.40;48.50;;;;;;4955583;28;20137;-84
2021/07/20 11:51:47;;;;;;;18.60;14.38;;;32.40;44.60;;;;;;4955669;28;20058;-84
2021/07/20 11:54:58;;;;;;;16.77;13.65;;;33.20;43.10;;;;;;4957596;28;20136;-87
2021/07/20 11:58:23;;;;;;;16.02;13.25;;;33.70;44.00;;;;;;4956166;28;20137;-85
2021/07/20 12:01:46;;;;;;;18.70;13.98;;;33.20;44.10;;;;;;4946573;28;20480;-83
2021/07/20 12:05:06;;;;;;;20.73;14.25;;;31.10;47.70;;;;;;4953850;28;20051;-83
2021/07/20 12:08:22;;;;;;;17.60;13.70;;;29.40;51.60;;;;;;4965169;28;20058;-83
2021/07/20 12:11:32;;;;;;;19.80;13.95;;;29.20;49.00;;;;;;4948659;28;20039;-83
2021/07/20 12:14:21;;;;;;;17.52;13.68;;;30.20;53.30;;;;;;4956651;28;20067;-82
2021/07/20 12:17:08;;;;;;;18.85;13.63;;;31.60;46.90;;;;;;4953127;28;20043;-84
2021/07/20 12:19:58;;;;;;;16.80;12.57;;;33.10;43.60;;;;;;4961006;28;20050;-84
2021/07/20 12:22:50;;;;;;;15.63;13.38;;;34.00;43.30;;;;;;4947147;28;20121;-83
2021/07/20 12:25:38;;;;;;;16.05;12.63;;;34.30;40.60;;;;;;4956673;28;20090;-83
2021/07/20 12:28:28;;;;;;;16.05;12.63;;;34.90;38.00;;;;;;4957715;28;20039;-83
2021/07/20 12:31:16;;;;;;;13.50;11.57;;;34.40;43.00;;;;;;4952792;28;20094;-82
2021/07/20 12:34:04;;;;;;;15.88;12.68;;;33.60;42.30;;;;;;4958419;28;20392;-83
2021/07/20 12:36:52;;;;;;;15.23;12.52;;;33.40;44.40;;;;;;4954023;28;20170;-83
2021/07/20 12:39:40;;;;;;;16.10;13.20;;;34.10;44.80;;;;;;4960125;28;20190;-83
2021/07/20 12:42:40;;;;;;;16.20;12.77;;;34.10;41.30;;;;;;4963553;28;20122;-82
2021/07/20 12:45:30;;;;;;;16.83;13.07;;;33.70;41.70;;;;;;4952034;28;20088;-83
2021/07/20 12:48:25;;;;;;;14.75;12.20;;;33.90;42.50;;;;;;4959009;28;20165;-83
2021/07/20 12:51:15;;;;;;;14.40;12.55;;;34.00;42.90;;;;;;4951991;28;20154;-82
2021/07/20 12:54:04;;;;;;;16.55;12.65;;;32.80;42.20;;;;;;4951699;28;20428;-82
2021/07/20 13:00:58;;;;;;;14.50;11.65;;;31.40;46.80;;;;;;4930712;29;20055;-86
2021/07/20 13:03:45;;;;;;;17.77;12.88;;;32.10;45.60;;;;;;4934821;29;20047;-87
2021/07/20 13:06:37;;;;;;;17.00;12.00;;;33.20;42.80;;;;;;4932238;29;20059;-88
2021/07/20 13:09:24;;;;;;;14.98;12.75;;;33.30;43.80;;;;;;4928536;29;20497;-87
2021/07/20 13:12:16;;;;;;;17.88;11.77;;;33.10;42.10;;;;;;4931494;29;20048;-87
2021/07/20 13:15:12;;;;;;;15.07;12.10;;;33.60;42.00;;;;;;4916415;29;20389;-85
2021/07/20 13:18:01;;;;;;;13.45;11.75;;;33.80;42.60;;;;;;4926419;29;20048;-86
2021/07/20 13:20:53;;;;;;;14.05;12.35;;;33.40;41.70;;;;;;4925561;29;20128;-87
2021/07/20 13:23:43;;;;;;;12.65;11.35;;;32.80;43.60;;;;;;4929090;29;20120;-87
2021/07/20 13:26:31;;;;;;;14.43;11.90;;;33.00;46.40;;;;;;4925917;29;20107;-86
2021/07/20 13:29:19;;;;;;;17.67;12.10;;;33.60;43.80;;;;;;4921497;29;20530;-85
2021/07/20 13:32:07;;;;;;;16.73;12.32;;;33.90;42.30;;;;;;4934274;29;20114;-87
2021/07/20 13:34:55;;;;;;;14.65;11.77;;;34.50;40.70;;;;;;4946673;29;20071;-89
2021/07/20 13:37:47;;;;;;;15.80;11.70;;;34.40;40.30;;;;;;4958689;28;20071;-87
2021/07/20 13:40:34;;;;;;;20.23;11.73;;;34.20;40.10;;;;;;4965075;28;20133;-85
2021/07/20 13:43:22;;;;;;;14.15;11.35;;;33.90;40.90;;;;;;4956911;28;20067;-85
2021/07/20 13:46:10;;;;;;;14.48;11.73;;;33.90;41.40;;;;;;4947936;28;20405;-85
2021/07/20 13:48:58;;;;;;;14.45;11.77;;;33.50;40.90;;;;;;4963986;28;20066;-85
2021/07/20 13:51:47;;;;;;;12.23;10.88;;;34.00;40.60;;;;;;4958189;28;20098;-87
2021/07/20 13:54:38;;;;;;;14.45;11.63;;;33.20;39.80;;;;;;4960279;28;20213;-86
2021/07/20 13:57:29;;;;;;;13.32;11.20;;;33.20;42.90;;;;;;4956270;29;20079;-87
2021/07/20 14:00:17;;;;;;;14.23;11.88;;;33.40;42.00;;;;;;4973976;28;20047;-86
2021/07/20 14:03:07;;;;;;;19.90;11.90;;;33.40;40.10;;;;;;4958194;28;20047;-86
2021/07/20 14:05:55;;;;;;;14.15;10.85;;;33.30;41.20;;;;;;4959049;28;20043;-87
2021/07/20 14:08:44;;;;;;;14.40;10.68;;;33.70;40.30;;;;;;4961351;28;20056;-87
2021/07/20 14:11:32;;;;;;;12.23;10.73;;;33.80;39.90;;;;;;4955566;28;20102;-85
2021/07/20 14:14:23;;;;;;;15.88;11.48;;;34.10;39.50;;;;;;4961693;28;20194;-88
2021/07/20 14:17:11;;;;;;;14.30;11.02;;;33.60;40.30;;;;;;4956432;28;20046;-87
2021/07/20 14:19:59;;;;;;;12.48;10.90;;;33.50;40.00;;;;;;4964600;28;20043;-89
2021/07/20 14:22:49;;;;;;;14.85;12.00;;;33.40;41.40;;;;;;4956677;28;20186;-87
2021/07/20 14:25:45;;;;;;;13.35;11.07;;;33.10;41.40;;;;;;4959752;28;20631;-87
2021/07/20 14:28:32;;;;;;;12.88;10.57;;;33.20;41.50;;;;;;4958332;28;20043;-87
2021/07/20 14:31:20;;;;;;;13.88;11.02;;;33.30;41.40;;;;;;4956301;28;20113;-87
2021/07/20 14:34:10;;;;;;;14.63;11.35;;;33.70;44.10;;;;;;4954819;28;20071;-87
2021/07/20 14:36:57;;;;;;;15.93;11.73;;;34.00;42.30;;;;;;4956597;28;20074;-86
2021/07/20 14:39:54;;;;;;;13.75;11.65;;;34.20;40.90;;;;;;4954550;29;20201;-85
2021/07/20 14:42:43;;;;;;;16.08;11.73;;;34.90;36.10;;;;;;4955897;28;20177;-86
2021/07/20 14:45:34;;;;;;;16.88;10.95;;;34.70;38.70;;;;;;4959701;28;20054;-86
2021/07/20 14:48:26;;;;;;;14.00;11.82;;;34.20;38.90;;;;;;4962285;28;20093;-84
2021/07/20 14:51:15;;;;;;;13.55;10.45;;;33.70;40.90;;;;;;4955047;28;20134;-87
2021/07/20 14:54:25;;;;;;;16.48;11.75;;;33.10;42.10;;;;;;4958245;28;20043;-86
2021/07/20 14:57:30;;;;;;;15.57;12.23;;;33.20;40.00;;;;;;4954767;28;20126;-87
2021/07/20 15:00:51;;;;;;;14.63;11.70;;;32.80;41.30;;;;;;4940205;28;20158;-86
2021/07/20 15:03:43;;;;;;;14.88;12.05;;;32.50;41.40;;;;;;4956052;28;20133;-87
2021/07/20 15:06:32;;;;;;;;;;;31.50;43.40;;;;;;4957913;28;20461;-87
2021/07/20 15:09:20;;;;;;;16.92;11.82;;;31.50;43.00;;;;;;4961789;28;19932;-87
2021/07/20 15:12:08;;;;;;;15.55;12.32;;;31.70;43.00;;;;;;4958507;28;20067;-88
2021/07/20 15:14:56;;;;;;;15.57;11.88;;;32.40;41.10;;;;;;4941996;28;20086;-87
2021/07/20 15:17:52;;;;;;;15.23;11.88;;;32.10;41.40;;;;;;4957696;28;20061;-88
2021/07/20 15:20:42;;;;;;;;;;;31.70;42.30;;;;;;4956539;28;20584;-86
2021/07/20 15:23:34;;;;;;;16.02;11.30;;;31.50;43.70;;;;;;4955347;28;19922;-88
2021/07/20 15:26:25;;;;;;;15.38;11.82;;;31.50;44.40;;;;;;4962103;28;20061;-86
2021/07/20 15:29:13;;;;;;;16.92;11.98;;;31.70;44.20;;;;;;4955518;28;20055;-85